createdAt,value
2023-04-10T00:04:21.689Z,2.7
2023-04-10T00:10:41.586Z,2.7
2023-04-10T00:17:04.644Z,4.3
2023-04-10T00:23:24.663Z,4.3
2023-04-10T00:29:47.567Z,4.9
2023-04-10T00:36:07.735Z,4.9
2023-04-10T00:42:30.614Z,6.1
2023-04-10T00:48:50.558Z,6.1
2023-04-10T00:55:13.668Z,7
2023-04-10T01:01:33.670Z,7
2023-04-10T01:07:56.655Z,8.3
2023-04-10T01:14:16.633Z,8.3
2023-04-10T01:20:39.561Z,5.7
2023-04-10T01:26:59.750Z,5.7
2023-04-10T01:33:22.673Z,8.3
2023-04-10T01:39:42.597Z,8.3
2023-04-10T01:46:05.581Z,5.4
2023-04-10T01:52:25.542Z,5.4
2023-04-10T01:58:48.538Z,4.9
2023-04-10T02:05:08.637Z,4.9
2023-04-10T02:11:31.715Z,6.9
2023-04-10T02:17:51.631Z,6.9
2023-04-10T02:24:14.654Z,7.5
2023-04-10T02:30:34.586Z,7.5
2023-04-10T02:36:57.639Z,6.2
2023-04-10T02:43:17.714Z,6.2
2023-04-10T02:49:40.712Z,5.2
2023-04-10T02:56:00.545Z,5.2
2023-04-10T03:02:23.827Z,5.4
2023-04-10T03:08:43.605Z,5.4
2023-04-10T03:32:25.550Z,11.3
2023-04-10T03:38:48.516Z,11.3
2023-04-10T03:45:08.642Z,11.3
2023-04-10T03:51:31.593Z,6.9
2023-04-10T03:57:51.583Z,6.9
2023-04-10T04:04:14.641Z,2.8
2023-04-10T04:10:34.646Z,2.8
2023-04-10T04:16:57.701Z,4.8
2023-04-10T04:23:17.684Z,4.8
2023-04-10T04:29:40.709Z,4
2023-04-10T04:36:00.766Z,4
2023-04-10T04:42:23.697Z,8.7
2023-04-10T04:48:43.622Z,8.7
2023-04-10T04:55:06.677Z,4.2
2023-04-10T05:01:26.668Z,4.2
2023-04-10T05:07:49.656Z,7.3
2023-04-10T05:14:09.541Z,7.3
2023-04-10T05:20:32.506Z,4.8
2023-04-10T05:26:52.538Z,4.8
2023-04-10T05:33:15.635Z,5.3
2023-04-10T05:39:35.496Z,5.3
2023-04-10T05:45:58.709Z,4.7
2023-04-10T05:52:18.545Z,4.7
2023-04-10T05:58:41.491Z,3.5
2023-04-10T06:05:01.550Z,3.5
2023-04-10T06:11:24.637Z,8.3
2023-04-10T06:17:44.666Z,8.3
2023-04-10T06:24:07.616Z,4.4
2023-04-10T06:30:27.661Z,4.4
2023-04-10T06:36:50.501Z,5.1
2023-04-10T06:43:10.613Z,5.1
2023-04-10T06:49:33.491Z,5.4
2023-04-10T06:55:53.785Z,5.4
2023-04-10T07:02:16.714Z,4.9
2023-04-10T07:08:36.526Z,4.9
2023-04-10T07:14:59.596Z,6.6
2023-04-10T07:21:19.584Z,6.6
2023-04-10T07:27:42.577Z,8.2
2023-04-10T07:34:02.550Z,8.2
2023-04-10T07:40:25.584Z,3
2023-04-10T07:46:45.583Z,3
2023-04-10T07:53:08.580Z,4.9
2023-04-10T07:59:28.553Z,4.9
2023-04-10T08:05:51.550Z,3.7
2023-04-10T08:12:11.521Z,3.7
2023-04-10T08:18:34.603Z,3.9
2023-04-10T08:24:54.539Z,3.9
2023-04-10T08:31:17.512Z,3.1
2023-04-10T08:48:01.277Z,2
2023-04-10T08:54:24.023Z,5
2023-04-10T09:00:43.491Z,5
2023-04-10T09:07:06.654Z,5
2023-04-10T09:13:26.504Z,5
2023-04-10T09:19:49.524Z,2.5
2023-04-10T09:26:09.580Z,2.5
2023-04-10T09:32:32.534Z,2.4
2023-04-10T09:38:52.584Z,2.4
2023-04-10T09:45:15.547Z,2.6
2023-04-10T09:51:35.490Z,2.6
2023-04-10T09:57:58.554Z,1.5
2023-04-10T10:04:18.534Z,1.5
2023-04-10T10:10:41.527Z,2.8
2023-04-10T10:17:01.553Z,2.8
2023-04-10T10:23:24.536Z,2
2023-04-10T10:29:44.526Z,2
2023-04-10T10:36:07.529Z,5
2023-04-10T10:42:27.532Z,5
2023-04-10T10:48:50.539Z,1.3
2023-04-10T10:55:10.541Z,1.3
2023-04-10T11:01:33.702Z,0.4
2023-04-10T11:07:53.487Z,0.4
2023-04-10T11:14:16.526Z,0.6
2023-04-10T11:20:36.577Z,0.6
2023-04-10T11:26:59.579Z,1.3
2023-04-10T11:33:19.535Z,1.3
2023-04-10T11:39:42.520Z,1.2
2023-04-10T11:46:02.627Z,1.2
2023-04-10T11:52:25.511Z,0.4
2023-04-10T11:58:45.507Z,0.4
2023-04-10T12:05:08.639Z,2.2
2023-04-10T12:11:28.478Z,2.2
2023-04-10T12:17:51.526Z,1.9
2023-04-10T12:24:11.516Z,1.9
2023-04-10T12:30:34.482Z,2.4
2023-04-10T12:36:54.575Z,2.4
2023-04-10T12:43:17.491Z,1.4
2023-04-10T12:49:37.499Z,1.4
2023-04-10T12:56:00.580Z,1.8
2023-04-10T13:02:20.554Z,1.8
2023-04-10T13:08:43.525Z,2
2023-04-10T13:15:03.529Z,2
2023-04-10T13:21:26.509Z,1.3
2023-04-10T13:27:46.519Z,1.3
2023-04-10T13:34:09.503Z,1.9
2023-04-10T13:40:29.522Z,1.9
2023-04-10T13:46:52.533Z,1.3
2023-04-10T13:53:12.555Z,1.3
2023-04-10T13:59:35.534Z,1.8
2023-04-10T14:05:55.502Z,1.8
2023-04-10T14:12:18.561Z,0.8
2023-04-10T14:18:38.496Z,0.8
2023-04-10T14:34:30.403Z,1.2
2023-04-10T14:40:50.514Z,1.2
2023-04-10T14:47:13.482Z,0.9
2023-04-10T14:53:33.563Z,0.9
2023-04-10T14:59:56.489Z,1.5
2023-04-10T15:06:16.535Z,1.5
2023-04-10T15:12:39.554Z,0.8
2023-04-10T15:18:59.491Z,0.8
2023-04-10T15:25:22.563Z,0.5
2023-04-10T15:31:42.532Z,0.5
2023-04-10T15:38:05.555Z,0.9
2023-04-10T15:44:25.514Z,0.9
2023-04-10T15:50:48.529Z,0.8
2023-04-10T15:57:08.569Z,0.8
2023-04-10T16:03:31.568Z,1
2023-04-10T16:09:51.542Z,1
2023-04-10T16:16:14.605Z,1.6
2023-04-10T16:22:34.522Z,1.6
2023-04-10T16:28:57.613Z,1.6
2023-04-10T16:35:17.549Z,1.6
2023-04-10T16:41:40.512Z,1.1
2023-04-10T16:48:00.690Z,1.1
2023-04-10T16:54:23.477Z,1.8
2023-04-10T17:00:43.552Z,1.8
2023-04-10T17:07:06.530Z,1.5
2023-04-10T17:13:26.510Z,1.5
2023-04-10T17:19:49.580Z,1.3
2023-04-10T17:26:09.515Z,1.3
2023-04-10T17:32:32.676Z,1.2
2023-04-10T17:38:54.089Z,1.2
2023-04-10T17:45:15.576Z,1.8
2023-04-10T17:51:35.645Z,1.8
2023-04-10T17:57:58.542Z,0.9
2023-04-10T18:04:18.665Z,0.9
2023-04-10T18:10:41.521Z,1.6
2023-04-10T18:17:01.608Z,1.6
2023-04-10T18:23:24.591Z,0.6
2023-04-10T18:29:44.513Z,0.6
2023-04-10T18:36:07.634Z,1.3
2023-04-10T18:42:27.705Z,1.3
2023-04-10T18:48:50.502Z,1.6
2023-04-10T18:55:10.556Z,1.6
2023-04-10T19:01:33.684Z,1.9
2023-04-10T19:08:03.442Z,1.9
2023-04-10T19:14:16.587Z,2.4
2023-04-10T19:20:49.727Z,2.4
2023-04-10T19:26:59.543Z,1.9
2023-04-10T19:33:19.508Z,1.9
2023-04-10T19:39:42.573Z,1.9
2023-04-10T19:46:02.571Z,1.9
2023-04-10T19:52:25.528Z,2.5
2023-04-10T19:58:46.910Z,2.5
2023-04-10T20:14:55.371Z,2.9
2023-04-10T20:21:15.489Z,2.9
2023-04-10T20:27:38.492Z,2.4
2023-04-10T20:33:58.568Z,2.4
2023-04-10T20:40:21.499Z,1.9
2023-04-10T20:46:41.534Z,1.9
2023-04-10T20:53:04.595Z,1.3
2023-04-10T20:59:24.466Z,1.3
2023-04-10T21:05:47.512Z,0.8
2023-04-10T21:12:07.490Z,0.8
2023-04-10T21:18:30.501Z,2
2023-04-10T21:24:50.552Z,2
2023-04-10T21:31:13.553Z,0.8
2023-04-10T21:37:33.523Z,0.8
2023-04-10T21:43:56.566Z,0.4
2023-04-10T21:50:16.521Z,0.4
2023-04-10T21:56:39.598Z,0.5
2023-04-10T22:22:11.499Z,1.7
2023-04-10T22:28:31.538Z,1.7
2023-04-10T22:34:54.518Z,1.7
2023-04-10T22:41:14.558Z,1.7
2023-04-10T22:47:37.463Z,0.7
2023-04-10T22:53:57.621Z,0.7
2023-04-10T23:00:20.560Z,0.5
2023-04-10T23:06:40.555Z,0.5
2023-04-10T23:13:03.509Z,0.6
2023-04-10T23:19:23.596Z,0.6
2023-04-10T23:25:46.488Z,0.2
2023-04-10T23:32:06.592Z,0.2
2023-04-10T23:38:29.563Z,0.4
2023-04-10T23:44:49.588Z,0.4
2023-04-10T23:51:12.490Z,0.2
2023-04-10T23:57:32.582Z,0.2
